createdAt,value
2018-06-18T00:02:13.076Z,99.90
2018-06-18T00:04:49.784Z,99.90
2018-06-18T00:07:25.994Z,99.90
2018-06-18T00:12:38.012Z,99.90
2018-06-18T00:17:55.907Z,99.90
2018-06-18T00:23:07.927Z,99.90
2018-06-18T00:25:44.299Z,99.90
2018-06-18T00:28:20.652Z,99.90
2018-06-18T00:30:57.797Z,99.90
2018-06-18T00:33:33.488Z,99.90
2018-06-18T00:36:09.343Z,99.90
2018-06-18T00:38:45.669Z,99.90
2018-06-18T00:41:21.413Z,99.90
2018-06-18T00:43:58.758Z,99.90
2018-06-18T00:46:34.812Z,99.90
2018-06-18T00:49:11.096Z,99.90
2018-06-18T00:51:48.924Z,99.90
2018-06-18T00:54:24.601Z,99.90
2018-06-18T00:57:05.209Z,99.90
2018-06-18T00:59:42.860Z,99.90
2018-06-18T01:02:19.842Z,99.90
2018-06-18T01:07:35.340Z,99.90
2018-06-18T01:10:12.097Z,99.90
2018-06-18T01:12:50.284Z,99.90
2018-06-18T01:15:26.706Z,99.90
2018-06-18T01:18:06.490Z,99.90
2018-06-18T01:20:43.915Z,99.90
2018-06-18T01:23:37.367Z,99.90
2018-06-18T01:26:14.259Z,99.90
2018-06-18T01:28:49.141Z,99.90
2018-06-18T01:31:34.662Z,99.90
2018-06-18T01:34:23.391Z,99.90
2018-06-18T01:40:02.214Z,99.90
2018-06-18T01:42:40.348Z,99.90
2018-06-18T01:48:04.777Z,99.90
2018-06-18T01:50:46.025Z,99.90
2018-06-18T01:53:26.641Z,99.90
2018-06-18T01:56:07.694Z,99.90
2018-06-18T02:01:34.960Z,99.90
2018-06-18T02:04:11.135Z,99.90
2018-06-18T02:06:47.489Z,99.90
2018-06-18T02:14:53.466Z,99.90
2018-06-18T02:17:31.089Z,99.90
2018-06-18T02:20:11.307Z,99.90
2018-06-18T02:22:52.598Z,99.90
2018-06-18T02:25:30.283Z,99.90
2018-06-18T02:28:12.336Z,99.90
2018-06-18T02:30:52.119Z,99.90
2018-06-18T02:33:31.266Z,99.90
2018-06-18T02:36:11.147Z,99.90
2018-06-18T02:41:24.650Z,99.90
2018-06-18T02:43:59.812Z,99.90
2018-06-18T02:46:33.956Z,99.90
2018-06-18T02:49:09.420Z,99.90
2018-06-18T02:51:43.591Z,99.90
2018-06-18T02:56:56.340Z,99.90
2018-06-18T02:59:30.524Z,99.90
2018-06-18T03:02:04.841Z,99.90
2018-06-18T03:04:39.017Z,99.90
2018-06-18T03:07:14.256Z,99.90
2018-06-18T03:09:48.393Z,99.90
2018-06-18T03:12:23.600Z,99.90
2018-06-18T03:14:57.751Z,99.90
2018-06-18T03:17:31.959Z,99.90
2018-06-18T03:20:11.174Z,99.90
2018-06-18T03:22:51.008Z,99.90
2018-06-18T03:25:30.186Z,99.90
2018-06-18T03:30:43.291Z,99.90
2018-06-18T03:33:17.492Z,99.90
2018-06-18T03:35:52.681Z,99.90
2018-06-18T03:38:26.870Z,99.90
2018-06-18T03:41:00.967Z,99.90
2018-06-18T03:43:37.804Z,99.90
2018-06-18T03:46:11.918Z,99.90
2018-06-18T03:48:46.078Z,99.90
2018-06-18T03:51:20.224Z,99.90
2018-06-18T03:56:29.046Z,99.90
2018-06-18T03:59:04.558Z,99.90
2018-06-18T04:02:58.783Z,99.90
2018-06-18T04:08:12.955Z,99.90
2018-06-18T04:10:53.943Z,99.90
2018-06-18T04:13:28.721Z,99.90
2018-06-18T04:16:04.441Z,99.90
2018-06-18T04:18:43.556Z,99.90
2018-06-18T04:21:18.296Z,99.90
2018-06-18T04:26:27.271Z,99.90
2018-06-18T04:29:01.990Z,99.90
2018-06-18T04:31:36.752Z,99.90
2018-06-18T04:34:25.359Z,99.90
2018-06-18T04:37:01.103Z,99.90
2018-06-18T04:42:16.334Z,99.90
2018-06-18T04:44:56.336Z,99.90
2018-06-18T04:47:36.104Z,99.90
2018-06-18T04:50:16.923Z,99.00
2018-06-18T04:52:51.603Z,98.80
2018-06-18T04:55:27.308Z,98.50
2018-06-18T04:58:01.968Z,98.30
2018-06-18T05:00:46.619Z,98.30
2018-06-18T05:03:22.319Z,98.30
2018-06-18T05:05:57.049Z,98.30
2018-06-18T05:09:02.522Z,98.30
2018-06-18T05:11:37.240Z,98.40
2018-06-18T05:14:11.947Z,97.70
2018-06-18T05:16:47.005Z,97.90
2018-06-18T05:21:56.968Z,97.70
2018-06-18T05:27:07.766Z,97.40
2018-06-18T05:29:42.482Z,97.50
2018-06-18T05:34:52.849Z,95.90
2018-06-18T05:37:50.480Z,96.20
2018-06-18T05:40:27.227Z,96.00
2018-06-18T05:43:16.793Z,95.80
2018-06-18T05:46:00.959Z,95.60
2018-06-18T05:48:46.170Z,95.70
2018-06-18T05:51:30.751Z,95.20
2018-06-18T05:54:18.093Z,96.10
2018-06-18T05:57:07.050Z,96.90
2018-06-18T06:02:33.765Z,95.80
2018-06-18T06:07:54.480Z,93.60
2018-06-18T06:10:29.188Z,93.80
2018-06-18T06:13:03.956Z,92.40
2018-06-18T06:15:38.803Z,90.90
2018-06-18T06:18:13.580Z,89.90
2018-06-18T06:20:54.647Z,87.60
2018-06-18T06:23:29.627Z,86.00
2018-06-18T06:26:04.345Z,82.80
2018-06-18T06:28:39.063Z,82.80
2018-06-18T06:33:47.978Z,83.70
2018-06-18T06:36:25.284Z,83.10
2018-06-18T06:41:35.315Z,83.20
2018-06-18T06:44:10.052Z,82.50
2018-06-18T06:46:44.739Z,81.60
2018-06-18T06:49:19.459Z,77.30
2018-06-18T06:51:54.177Z,75.90
2018-06-18T06:54:28.898Z,70.60
2018-06-18T06:57:03.637Z,63.70
2018-06-18T06:59:38.368Z,59.20
2018-06-18T07:02:13.083Z,58.00
2018-06-18T07:04:47.827Z,54.20
2018-06-18T07:07:22.537Z,51.20
2018-06-18T07:09:58.245Z,50.90
2018-06-18T07:15:07.633Z,47.70
2018-06-18T07:17:42.838Z,45.90
2018-06-18T07:20:17.572Z,40.60
2018-06-18T07:22:53.463Z,41.60
2018-06-18T07:25:28.156Z,42.10
2018-06-18T07:28:02.916Z,43.00
2018-06-18T07:30:37.657Z,46.70
2018-06-18T07:33:12.562Z,48.50
2018-06-18T07:35:47.276Z,50.00
2018-06-18T07:38:21.978Z,51.60
2018-06-18T07:40:56.663Z,52.70
2018-06-18T07:43:31.394Z,53.90
2018-06-18T07:46:06.114Z,54.50
2018-06-18T07:48:40.807Z,57.00
2018-06-18T07:51:15.499Z,56.30
2018-06-18T07:53:51.923Z,56.50
2018-06-18T07:56:26.710Z,56.10
2018-06-18T07:59:01.443Z,56.00
2018-06-18T08:01:36.162Z,55.70
2018-06-18T08:04:11.891Z,56.70
2018-06-18T08:06:46.576Z,57.10
2018-06-18T08:09:21.259Z,58.40
2018-06-18T08:11:55.942Z,58.50
2018-06-18T08:14:31.635Z,58.80
2018-06-18T08:19:41.595Z,59.60
2018-06-18T08:24:51.792Z,57.20
2018-06-18T08:27:26.511Z,56.40
2018-06-18T08:30:01.242Z,55.90
2018-06-18T08:32:35.978Z,54.90
2018-06-18T08:35:10.640Z,54.80
2018-06-18T08:37:45.356Z,54.30
2018-06-18T08:40:20.041Z,56.40
2018-06-18T08:42:54.779Z,53.60
2018-06-18T08:45:29.461Z,54.00
2018-06-18T08:50:47.931Z,51.90
2018-06-18T08:53:29.996Z,52.70
2018-06-18T08:56:10.986Z,51.70
2018-06-18T09:01:30.778Z,52.80
2018-06-18T09:04:06.478Z,50.60
2018-06-18T09:06:41.172Z,51.30
2018-06-18T09:09:15.912Z,48.70
2018-06-18T09:11:50.604Z,48.10
2018-06-18T09:16:59.579Z,46.00
2018-06-18T09:19:34.334Z,48.10
2018-06-18T09:22:09.023Z,46.40
2018-06-18T09:24:44.742Z,46.90
2018-06-18T09:32:34.511Z,47.90
2018-06-18T09:37:43.590Z,49.30
2018-06-18T09:40:18.324Z,48.70
2018-06-18T09:45:27.234Z,49.90
2018-06-18T09:48:02.051Z,50.80
2018-06-18T09:53:21.491Z,49.80
2018-06-18T09:56:02.528Z,50.10
2018-06-18T09:58:42.495Z,49.50
2018-06-18T10:06:34.490Z,49.30
2018-06-18T10:09:11.365Z,49.20
2018-06-18T10:11:46.072Z,50.20
2018-06-18T10:14:22.888Z,49.10
2018-06-18T10:16:57.600Z,49.90
2018-06-18T10:19:32.344Z,45.80
2018-06-18T10:22:07.103Z,45.40
2018-06-18T10:24:41.840Z,45.40
2018-06-18T10:29:50.754Z,44.30
2018-06-18T10:32:30.727Z,45.70
2018-06-18T10:35:10.588Z,45.90
2018-06-18T10:37:50.531Z,47.40
2018-06-18T10:40:30.382Z,46.80
2018-06-18T10:43:11.298Z,46.80
2018-06-18T10:45:46.219Z,46.30
2018-06-18T10:48:21.431Z,46.90
2018-06-18T10:50:56.533Z,46.80
2018-06-18T10:53:31.258Z,46.30
2018-06-18T10:56:06.286Z,47.70
2018-06-18T10:58:42.064Z,47.70
2018-06-18T11:01:22.371Z,45.80
2018-06-18T11:03:57.293Z,43.10
2018-06-18T11:06:35.849Z,43.50
2018-06-18T11:09:12.836Z,43.90
2018-06-18T11:14:21.804Z,46.20
2018-06-18T11:17:01.746Z,44.50
2018-06-18T11:22:17.438Z,44.30
2018-06-18T11:24:57.420Z,44.40
2018-06-18T11:27:32.100Z,46.50
2018-06-18T11:30:06.945Z,45.50
2018-06-18T11:32:41.821Z,44.10
2018-06-18T11:35:16.563Z,45.30
2018-06-18T11:37:52.263Z,44.20
2018-06-18T11:40:26.981Z,46.40
2018-06-18T11:43:01.673Z,45.60
2018-06-18T11:48:15.264Z,44.60
2018-06-18T11:50:51.418Z,46.30
2018-06-18T11:53:26.154Z,45.40
2018-06-18T11:56:01.943Z,46.50
2018-06-18T11:58:41.856Z,44.20
2018-06-18T12:01:21.875Z,46.30
2018-06-18T12:04:01.919Z,47.00
2018-06-18T12:06:41.666Z,46.90
2018-06-18T12:09:21.754Z,46.20
2018-06-18T12:14:30.967Z,45.00
2018-06-18T12:17:05.734Z,47.00
2018-06-18T12:19:40.428Z,47.00
2018-06-18T12:22:15.215Z,47.50
2018-06-18T12:24:49.923Z,47.30
2018-06-18T12:27:27.602Z,47.50
2018-06-18T12:30:02.367Z,47.40
2018-06-18T12:32:38.084Z,47.60
2018-06-18T12:35:12.840Z,47.30
2018-06-18T12:37:47.784Z,47.20
2018-06-18T12:42:56.834Z,48.90
2018-06-18T12:45:37.800Z,49.10
2018-06-18T12:50:57.180Z,49.40
2018-06-18T12:56:17.507Z,48.60
2018-06-18T12:58:52.190Z,48.80
2018-06-18T13:01:29.379Z,49.20
2018-06-18T13:04:06.875Z,48.60
2018-06-18T13:06:41.591Z,49.40
2018-06-18T13:09:16.302Z,48.60
2018-06-18T13:11:51.053Z,48.80
2018-06-18T13:14:25.768Z,48.40
2018-06-18T13:17:00.516Z,48.90
2018-06-18T13:19:35.234Z,48.70
2018-06-18T13:22:09.951Z,49.40
2018-06-18T13:24:44.883Z,49.60
2018-06-18T13:27:19.780Z,49.90
2018-06-18T13:29:54.650Z,49.80
2018-06-18T13:35:03.646Z,51.10
2018-06-18T13:37:43.703Z,50.90
2018-06-18T13:40:23.723Z,52.10
2018-06-18T13:43:03.683Z,52.60
2018-06-18T13:45:41.312Z,52.60
2018-06-18T13:48:24.869Z,52.90
2018-06-18T13:53:34.843Z,53.30
2018-06-18T13:56:09.640Z,53.60
2018-06-18T13:58:44.369Z,54.00
2018-06-18T14:01:19.057Z,53.30
2018-06-18T14:03:53.770Z,53.10
2018-06-18T14:06:28.503Z,53.70
2018-06-18T14:09:03.511Z,54.60
2018-06-18T14:11:38.223Z,54.10
2018-06-18T14:16:47.176Z,53.60
2018-06-18T14:19:28.094Z,53.80
2018-06-18T14:22:02.860Z,52.30
2018-06-18T14:27:11.787Z,51.50
2018-06-18T14:29:51.531Z,51.70
2018-06-18T14:32:31.341Z,52.20
2018-06-18T14:38:55.814Z,53.50
2018-06-18T14:41:31.576Z,53.10
2018-06-18T14:44:06.274Z,53.10
2018-06-18T14:49:15.209Z,53.00
2018-06-18T14:51:50.915Z,53.10
2018-06-18T14:54:26.222Z,53.30
2018-06-18T14:57:02.735Z,53.50
2018-06-18T15:02:13.685Z,54.50
2018-06-18T15:04:48.430Z,54.10
2018-06-18T15:07:23.238Z,54.00
2018-06-18T15:09:58.019Z,53.80
2018-06-18T15:12:37.411Z,53.60
2018-06-18T15:15:17.515Z,53.80
2018-06-18T15:17:52.294Z,53.20
2018-06-18T15:20:27.047Z,54.20
2018-06-18T15:23:03.566Z,55.00
2018-06-18T15:25:44.419Z,54.80
2018-06-18T15:28:19.173Z,55.10
2018-06-18T15:30:53.896Z,55.00
2018-06-18T15:33:28.616Z,55.20
2018-06-18T15:36:03.303Z,55.80
2018-06-18T15:38:39.096Z,55.90
2018-06-18T15:41:13.855Z,56.10
2018-06-18T15:43:48.611Z,56.40
2018-06-18T15:46:24.003Z,56.80
2018-06-18T15:48:58.740Z,56.80
2018-06-18T15:51:33.596Z,56.80
2018-06-18T15:54:28.886Z,56.50
2018-06-18T16:02:31.399Z,57.00
2018-06-18T16:05:06.973Z,57.00
2018-06-18T16:07:42.164Z,58.00
2018-06-18T16:10:16.982Z,58.10
2018-06-18T16:12:51.901Z,57.50
2018-06-18T16:15:35.170Z,57.70
2018-06-18T16:18:27.318Z,57.80
2018-06-18T16:24:03.172Z,58.30
2018-06-18T16:26:37.928Z,59.30
2018-06-18T16:31:47.024Z,59.70
2018-06-18T16:45:54.775Z,60.10
2018-06-18T16:48:30.628Z,60.50
2018-06-18T16:51:05.915Z,60.60
2018-06-18T16:53:40.675Z,60.60
2018-06-18T16:56:15.429Z,60.10
2018-06-18T16:58:51.188Z,60.90
2018-06-18T17:01:25.941Z,61.20
2018-06-18T17:04:00.707Z,62.00
2018-06-18T17:06:36.099Z,63.00
2018-06-18T17:09:11.812Z,63.40
2018-06-18T17:11:46.579Z,62.70
2018-06-18T17:14:21.332Z,63.70
2018-06-18T17:19:30.384Z,64.00
2018-06-18T17:22:05.166Z,64.10
2018-06-18T17:24:39.965Z,64.30
2018-06-18T17:27:14.751Z,64.50
2018-06-18T17:29:50.539Z,65.30
2018-06-18T17:32:25.350Z,65.60
2018-06-18T17:35:00.130Z,65.50
2018-06-18T17:37:34.894Z,65.30
2018-06-18T17:42:43.925Z,66.40
2018-06-18T17:45:19.668Z,67.10
2018-06-18T17:47:54.487Z,67.90
2018-06-18T17:50:30.416Z,67.00
2018-06-18T17:53:06.330Z,66.80
2018-06-18T17:55:41.107Z,67.50
2018-06-18T17:58:15.870Z,67.20
2018-06-18T18:03:25.941Z,67.70
2018-06-18T18:06:00.752Z,67.80
2018-06-18T18:08:36.521Z,68.40
2018-06-18T18:11:11.304Z,68.90
2018-06-18T18:13:47.227Z,69.70
2018-06-18T18:16:22.160Z,70.40
2018-06-18T18:19:04.099Z,70.50
2018-06-18T18:21:38.904Z,70.60
2018-06-18T18:24:13.675Z,71.30
2018-06-18T18:26:49.493Z,71.90
2018-06-18T18:29:24.343Z,72.70
2018-06-18T18:31:59.155Z,73.30
2018-06-18T18:34:34.959Z,74.30
2018-06-18T18:37:09.747Z,74.40
2018-06-18T18:39:44.522Z,74.70
2018-06-18T18:42:19.494Z,75.20
2018-06-18T18:44:54.283Z,75.70
2018-06-18T18:47:29.063Z,76.30
2018-06-18T18:50:03.982Z,76.40
2018-06-18T18:52:38.747Z,77.10
2018-06-18T18:58:38.309Z,78.30
2018-06-18T19:01:35.565Z,78.70
2018-06-18T19:04:58.518Z,79.30
2018-06-18T19:07:57.294Z,80.20
2018-06-18T19:26:20.509Z,86.40
2018-06-18T19:29:11.401Z,87.40
2018-06-18T19:37:43.243Z,90.10
2018-06-18T19:40:29.168Z,90.40
2018-06-18T19:46:15.820Z,90.80
2018-06-18T19:49:11.834Z,91.00
2018-06-18T19:57:56.981Z,94.60
2018-06-18T20:00:44.792Z,96.80
2018-06-18T20:08:59.203Z,99.90
2018-06-18T20:11:35.229Z,99.90
2018-06-18T20:14:10.007Z,99.90
2018-06-18T20:16:44.803Z,99.90
2018-06-18T20:19:19.938Z,99.90
2018-06-18T20:21:54.714Z,99.90
2018-06-18T20:24:29.507Z,99.90
2018-06-18T20:27:04.271Z,99.90
2018-06-18T20:29:39.019Z,99.90
2018-06-18T20:32:14.840Z,99.90
2018-06-18T20:34:52.644Z,99.90
2018-06-18T20:37:27.425Z,99.90
2018-06-18T20:40:02.218Z,99.90
2018-06-18T20:42:38.681Z,99.90
2018-06-18T20:45:14.567Z,99.90
2018-06-18T20:47:50.387Z,99.90
2018-06-18T20:50:26.134Z,99.90
2018-06-18T20:53:01.921Z,99.90
2018-06-18T20:55:36.734Z,99.90
2018-06-18T21:00:48.048Z,99.90
2018-06-18T21:03:23.268Z,99.90
2018-06-18T21:06:01.443Z,99.90
2018-06-18T21:08:36.235Z,99.90
2018-06-18T21:11:11.098Z,99.90
2018-06-18T21:13:46.048Z,99.90
2018-06-18T21:16:20.808Z,99.90
2018-06-18T21:18:55.711Z,99.90
2018-06-18T21:21:36.226Z,99.90
2018-06-18T21:24:11.154Z,99.90
2018-06-18T21:26:45.911Z,99.90
2018-06-18T21:29:24.639Z,99.90
2018-06-18T21:31:59.603Z,99.90
2018-06-18T21:34:34.355Z,99.90
2018-06-18T21:37:09.131Z,99.90
2018-06-18T21:39:43.910Z,99.90
2018-06-18T21:42:18.677Z,99.90
2018-06-18T21:47:34.199Z,99.90
2018-06-18T21:50:09.007Z,99.90
2018-06-18T21:52:43.820Z,99.90
2018-06-18T21:57:53.016Z,99.90
2018-06-18T22:00:33.223Z,99.90
2018-06-18T22:03:08.235Z,99.90
2018-06-18T22:05:43.139Z,99.90
2018-06-18T22:08:20.712Z,99.90
2018-06-18T22:10:56.667Z,99.90
2018-06-18T22:16:34.849Z,99.90
2018-06-18T22:19:10.495Z,99.90
2018-06-18T22:21:45.942Z,99.90
2018-06-18T22:24:24.039Z,99.90
2018-06-18T22:26:58.910Z,99.90
2018-06-18T22:34:42.314Z,99.90
2018-06-18T22:37:17.142Z,99.90
2018-06-18T22:39:52.896Z,99.90
2018-06-18T22:42:27.753Z,99.90
2018-06-18T22:45:02.715Z,99.90
2018-06-18T22:47:37.560Z,99.90
2018-06-18T22:50:12.756Z,99.90
2018-06-18T22:52:47.592Z,99.90
2018-06-18T22:57:56.947Z,99.90
2018-06-18T23:00:31.779Z,99.90
2018-06-18T23:03:06.633Z,99.90
2018-06-18T23:05:42.812Z,99.90
2018-06-18T23:08:17.697Z,99.90
2018-06-18T23:10:54.020Z,99.90
2018-06-18T23:13:32.082Z,99.90
2018-06-18T23:16:08.244Z,99.90
2018-06-18T23:18:58.965Z,99.90
2018-06-18T23:21:36.327Z,99.90
2018-06-18T23:24:13.275Z,99.90
2018-06-18T23:26:49.909Z,99.90
2018-06-18T23:29:29.450Z,99.90
2018-06-18T23:32:06.530Z,99.90
2018-06-18T23:34:46.327Z,99.90
2018-06-18T23:37:24.438Z,99.90
2018-06-18T23:40:04.588Z,99.90
2018-06-18T23:42:40.715Z,99.90
2018-06-18T23:45:15.545Z,99.90
2018-06-18T23:47:50.425Z,99.90
2018-06-18T23:50:30.653Z,99.90
2018-06-18T23:55:40.350Z,99.90
2018-06-18T23:58:15.205Z,99.90
